Tiempo atmosférico en la estación meteorológica de Arico, Santa Cruz de Tenerife (418 m.)



Fecha
DESCASC
Temp. máxima en grados centígrados (hora)
DESCASC
Temp. mínima en grados centígrados (hora)
DESCASC
Temp. media en grados centígrados
DESCASC
Racha de viento máxima en m/sg (hora)
DESCASC
Velocidad máxima media en intervalos de 10 minutos(hora)
DESCASC
Precipitaciones diarias en mm
DESCASC
Precipitaciones de 00:00 a 06:00 en mm
DESCASC
Precipitaciones de 06:00 a 12:00 en mm
DESCASC
Precipitaciones de 12:00 a 18:00 en mm
DESCASC
Precipitaciones de 18:00 a 24:00 en mm
DESCASC
22-04-2019 22.2 (15:40) 12.7 (07:00) 17.5 8.61 (14:30) 5.83 (16:40) 0 0 0 0 0
21-04-2019 21.2 (14:50) 12.8 (07:30) 17 8.89 (17:50) 5.56 (17:20) 0 0 0 0 0
20-04-2019 18.6 (10:50) 12.2 (04:00) 15.4 7.78 (15:10) 4.72 (14:40) 0 0 0 0 0
19-04-2019 20.4 (14:20) 12.1 (05:10) 16.3 11.67 (11:30) 7.22 (12:40) 0 0 0 0 0
18-04-2019 18.6 (15:10) 13 (00:00) 15.8 11.39 (14:10) 6.67 (13:40) 0 0 0 0 0
17-04-2019 21.8 (12:30) 13.4 (00:00) 17.6 6.39 (11:50) 3.61 (12:40) 0 0 0 0 0
16-04-2019 18.7 (10:50) 13.1 (00:00) 15.9 4.72 (10:10) 2.78 (10:10) 0 0 0 0 0
15-04-2019 22 (13:50) 13.1 (00:00) 17.6 10.56 (12:40) 6.67 (12:30) 0 0 0 0 0
14-04-2019 23 (14:50) 11.9 (00:00) 17.4 6.94 (04:30) 4.17 (04:50) 0 0 0 0 0
13-04-2019 20.4 (15:00) 12.9 (00:00) 16.6 12.22 (14:20) 7.78 (14:20) 0 0 0 0 0
12-04-2019 19.7 (15:50) 11.6 (00:00) 15.7 13.33 (12:40) 7.78 (10:40) 0 0 0 0 0
11-04-2019 19.6 (13:10) 11.3 (00:00) 15.5 14.17 (15:30) 8.89 (14:10) 0 0 0 0 0
10-04-2019 19.5 (13:40) 11.1 (00:00) 15.3 13.06 (17:50) 7.78 (13:50) 0 0 0 0 0
09-04-2019 19.3 (10:40) 11.7 (00:00) 15.5 10.83 (16:50) 6.11 (12:20) 1 0 0 1 0
08-04-2019 19.4 (11:00) 12.5 (00:00) 15.9 7.22 (10:50) 3.89 (19:10) 0 0 0 0 0
07-04-2019 19.9 (11:40) 11.1 (00:00) 15.5 7.22 (15:10) 4.17 (14:30) 0 0 0 0 0
06-04-2019 18.6 (16:50) 12.2 (00:00) 15.4 8.89 (16:40) 6.11 (17:30) 0 0 0 0 0
05-04-2019 18.9 (17:10) 12.3 (00:00) 15.6 9.17 (16:10) 6.11 (16:10) 0 0 0 0 0
04-04-2019 18.7 (17:00) 11.3 (00:00) 15 10.28 (16:50) 5.83 (16:30) 0 0 0 0 0
03-04-2019 19 (12:20) 11.3 (08:00) 15.2 8.06 (14:10) 5 (13:50) 0.4 0 0 0.4 0
02-04-2019 17.1 (17:20) 12.7 (00:00) 14.9 4.72 (16:30) 3.33 (11:30) 4.6 0 3 1.6 0
01-04-2019 16.3 (13:50) 12.4 (00:00) 14.3 5.83 (03:50) 4.44 (04:20) 7.6 0 0 1.4 6.2
31-03-2019 20.5 (14:40) 10.4 (00:00) 15.4 5.56 (00:50) 3.89 (00:50) 0 0 0 0 0
30-03-2019 18.6 (10:30) 11.2 (00:00) 14.9 7.78 (12:50) 3.61 (01:00) 0.8 0 0 0.8 0
29-03-2019 20.1 (14:10) 11.8 (00:00) 16 9.17 (15:50) 5.83 (14:50) 0 0 0 0 0
28-03-2019 19.5 (11:00) 12 (00:00) 15.8 5.56 (11:50) 3.33 (11:40) 1.4 1.4 0 0 0
27-03-2019 19.5 (10:10) 12.5 (00:00) 16 6.39 (01:50) 5 (03:00) 0.6 0 0 0.6 0
26-03-2019 19 (13:00) 10.8 (00:00) 14.9 6.39 (11:00) 3.89 (11:10) 0 0 0 0 0
25-03-2019 15.4 (15:30) 11.3 (00:00) 13.3 6.67 (12:50) 3.33 (12:50) 12.6 0.2 10 2.4 0

Gráficas

Temp. máximas Temp. mínimas Temp. medias Precipitaciones Rachas de viento máximas Velocidades máximas media en intervalos de 10 minutos

Datos horarios

Fecha y hora oficial Temperatura (ºC) Velocidad del viento (km/h) Dirección del viento Racha (km/h) Dirección de racha Precipitación (mm) Presión (hPa) Tendencia (hPa) Humedad (%)
2019-04-23 23:00:00 15.1 12 Oeste 22 Sudoeste 0 -- -- 79
2019-04-23 22:00:00 15.6 13 Oeste 21 Sudoeste 0 -- -- 81
2019-04-23 21:00:00 16.1 12 Sudoeste 20 Sudoeste 0 -- -- 78
2019-04-23 20:00:00 16.4 8 Sur 14 Sur 0 -- -- 79
2019-04-23 19:00:00 16.6 9 Sudoeste 15 Sur 0 -- -- 84
2019-04-23 18:00:00 17.2 9 Sur 16 Sur 0 -- -- 77
2019-04-23 17:00:00 18 9 Sudeste 27 Sudeste 0 -- -- 71
2019-04-23 16:00:00 19.9 13 Sudeste 33 Sudeste 0 -- -- 64
2019-04-23 15:00:00 21.6 22 Sur 37 Sur 0 -- -- 60
2019-04-23 14:00:00 21.6 23 Sur 35 Sudoeste 0 -- -- 58
2019-04-23 13:00:00 20.4 19 Sudoeste 33 Sur 0 -- -- 62
2019-04-23 12:00:00 19.4 12 Sudoeste 25 Sudoeste 0 -- -- 64
2019-04-23 11:00:00 16.7 9 Sudoeste 18 Sudoeste 0 -- -- 79
2019-04-23 10:00:00 15.6 13 Sudoeste 21 Sudoeste 0 -- -- 85
2019-04-23 09:00:00 15.6 13 Sudoeste 21 Sudoeste 0 -- -- 82
2019-04-23 08:00:00 14.6 8 Oeste 11 Oeste 0 -- -- 83
2019-04-23 07:00:00 13.9 5 Noroeste 14 Noroeste 0 -- -- 82
2019-04-23 06:00:00 12.9 8 Noroeste 13 Norte 0 -- -- 84
2019-04-23 05:00:00 13.7 4 Oeste 25 Sudoeste 0 -- -- 77
2019-04-23 04:00:00 14.5 17 Oeste 33 Sudoeste 0 -- -- 83
2019-04-23 03:00:00 14.8 10 Oeste 22 Sudoeste 0 -- -- 85
2019-04-23 02:00:00 15 15 Sudoeste 23 Oeste 0 -- -- 87
2019-04-23 01:00:00 15 18 Sudoeste 30 Sudoeste 0 -- -- 87
2019-04-23 00:00:00 14.8 6 Sudoeste 14 Oeste 0 -- -- 86
2019-04-22 23:00:00 14.9 8 Oeste 14 Sudoeste 0 -- -- 86
2019-04-22 22:00:00 15.3 6 Sudoeste 13 Sudoeste 0 -- -- 85
2019-04-22 21:00:00 16.2 8 Este 17 Este 0 -- -- 80
2019-04-22 20:00:00 16.9 10 Este 21 Este 0 -- -- 80
2019-04-22 19:00:00 19 10 Este 23 Nordeste 0 -- -- 69
2019-04-22 18:00:00 20.9 8 Sudeste 23 Sur 0 -- -- 63
2019-04-22 17:00:00 21.3 18 Sur 31 Sur 0 -- -- 61
2019-04-22 16:00:00 22.1 17 Sur 26 Sur 0 -- -- 61
2019-04-22 15:00:00 21.8 17 Sur 31 Sudeste 0 -- -- 61
2019-04-22 14:00:00 21.1 15 Sur 30 Sur 0 -- -- 64
2019-04-22 13:00:00 21.3 19 Sur 30 Sur 0 -- -- 64
2019-04-22 12:00:00 20.1 16 Sur 26 Sudoeste 0 -- -- 68
2019-04-22 11:00:00 19.5 12 Sur 19 Sur 0 -- -- 67
2019-04-22 10:00:00 18.6 4 Norte 8 Nordeste 0 -- -- 67
2019-04-22 09:00:00 16 3 Norte 10 Noroeste 0 -- -- 77
2019-04-22 08:00:00 12.9 9 Noroeste 14 Noroeste 0 -- -- 84
2019-04-22 07:00:00 12.7 4 Noroeste 18 Noroeste 0 -- -- 86
2019-04-22 06:00:00 12.8 9 Noroeste 13 Noroeste 0 -- -- 82
2019-04-22 05:00:00 13.1 5 Noroeste 23 Oeste 0 -- -- 76
2019-04-22 04:00:00 13.5 17 Oeste 28 Sudoeste 0 -- -- 86
2019-04-22 03:00:00 14 11 Oeste 23 Sudoeste 0 -- -- 86
2019-04-22 02:00:00 14.4 15 Sudoeste 23 Sudoeste 0 -- -- 85
2019-04-22 01:00:00 14.3 14 Sudoeste 20 Sudoeste 0 -- -- 84
2019-04-22 00:00:00 14.4 16 Oeste 27 Oeste 0 -- -- 83
2019-04-21 23:00:00 15.1 12 Sudoeste 18 Sudoeste 0 -- -- 84
2019-04-21 22:00:00 16 5 Sudoeste 9 Sur 0 -- -- 84
2019-04-21 21:00:00 16.3 6 Sudeste 17 Sur 0 -- -- 82
2019-04-21 20:00:00 17 12 Sur 21 Sur 0 -- -- 75
2019-04-21 19:00:00 18.1 14 Sudoeste 31 Sudoeste 0 -- -- 70
2019-04-21 18:00:00 19.7 17 Sur 32 Sur 0 -- -- 60
2019-04-21 17:00:00 19.8 15 Sur 27 Sur 0 -- -- 57
2019-04-21 16:00:00 20.6 12 Sudeste 27 Sur 0 -- -- 55
2019-04-21 15:00:00 21.1 9 Sudeste 27 Este 0 -- -- 54
2019-04-21 14:00:00 20.3 10 Este 24 Sudeste 0 -- -- 59
2019-04-21 13:00:00 18.7 9 Sur 24 Sur 0 -- -- 65
2019-04-21 12:00:00 18.4 16 Sudoeste 31 Sur 0 -- -- 64
2019-04-21 11:00:00 18.8 17 Sur 27 Sudeste 0 -- -- 64
2019-04-21 10:00:00 18.3 7 Sur 14 Sur 0 -- -- 56
2019-04-21 09:00:00 16.1 8 Nordeste 13 Oeste 0 -- -- 61
2019-04-21 08:00:00 13.1 10 Oeste 16 Oeste 0 -- -- 70
2019-04-21 07:00:00 13.3 12 Oeste 24 Oeste 0 -- -- 71
2019-04-21 06:00:00 13.3 17 Oeste 23 Oeste 0 -- -- 72
2019-04-21 05:00:00 13.2 8 Oeste 14 Noroeste 0 -- -- 72
2019-04-21 04:00:00 13.9 11 Noroeste 17 Noroeste 0 -- -- 68
2019-04-21 03:00:00 14.1 9 Noroeste 12 Noroeste 0 -- -- 76
2019-04-21 02:00:00 14.9 3 Sur 6 Sur 0 -- -- 73
2019-04-21 01:00:00 14.6 0 Calma 12 Norte 0 -- -- 73
2019-04-21 00:00:00 14.3 8 Noroeste 12 Noroeste 0 -- -- 72
2019-04-20 23:00:00 14.2 7 Oeste 10 Oeste 0 -- -- 76
2019-04-20 22:00:00 15.3 8 Sudoeste 17 Sudoeste 0 -- -- 71
2019-04-20 21:00:00 15.9 6 Sur 15 Sudoeste 0 -- -- 69
2019-04-20 20:00:00 16.4 8 Este 19 Este 0 -- -- 70
2019-04-20 19:00:00 16.8 6 Sudeste 21 Este 0 -- -- 68
2019-04-20 18:00:00 16.9 13 Este 26 Este 0 -- -- 66
2019-04-20 17:00:00 17.9 9 Este 22 Este 0 -- -- 63
2019-04-20 16:00:00 17.9 12 Este 28 Este 0 -- -- 60
2019-04-20 15:00:00 17 13 Nordeste 27 Nordeste 0 -- -- 63
2019-04-20 14:00:00 17.3 13 Nordeste 21 Este 0 -- -- 61
2019-04-20 13:00:00 17.6 8 Sudeste 12 Sur 0 -- -- 57
2019-04-20 12:00:00 16.7 5 Este 17 Este 0 -- -- 62
2019-04-20 11:00:00 18.4 7 Este 15 Este 0 -- -- 58
2019-04-20 10:00:00 16.4 5 Este 11 Este 0 -- -- 68
2019-04-20 09:00:00 14.4 3 Oeste 17 Oeste 0 -- -- 71
2019-04-20 08:00:00 12.9 13 Oeste 18 Oeste 0 -- -- 73
2019-04-20 07:00:00 12.6 8 Oeste 15 Oeste 0 -- -- 75
2019-04-20 06:00:00 12.5 9 Oeste 14 Noroeste 0 -- -- 76
2019-04-20 05:00:00 12.3 10 Noroeste 17 Noroeste 0 -- -- 76
2019-04-20 04:00:00 12.2 7 Noroeste 14 Noroeste 0 -- -- 76
2019-04-20 03:00:00 12.9 10 Noroeste 14 Noroeste 0 -- -- 75
2019-04-20 02:00:00 12.9 9 Oeste 17 Oeste 0 -- -- 77
2019-04-20 01:00:00 12.9 12 Oeste 16 Oeste 0 -- -- 80
2019-04-20 00:00:00 13 5 Norte 11 Nordeste 0 -- -- 78
2019-04-19 23:00:00 13.2 5 Norte 8 Noroeste 0 -- -- 77
2019-04-19 22:00:00 14.4 4 Oeste 27 Sudoeste 0 -- -- 73
2019-04-19 21:00:00 14.9 17 Sudoeste 33 Sudoeste 0 -- -- 71
2019-04-19 20:00:00 15.6 20 Sudoeste 29 Sudoeste 0 -- -- 68
2019-04-19 19:00:00 17 18 Sur 32 Sur 0 -- -- 63
2019-04-19 18:00:00 19 13 Este 28 Sudeste 0 -- -- 55
2019-04-19 17:00:00 19.5 17 Este 32 Este 0 -- -- 52
2019-04-19 16:00:00 19.8 15 Este 34 Este 0 -- -- 51
2019-04-19 15:00:00 20 19 Este 37 Este 0 -- -- 52
2019-04-19 14:00:00 20.1 17 Este 39 Este 0 -- -- 49
2019-04-19 13:00:00 19.6 22 Nordeste 41 Nordeste 0 -- -- 51
2019-04-19 12:00:00 19.4 23 Nordeste 42 Nordeste 0 -- -- 50
2019-04-19 11:00:00 18.7 21 Nordeste 33 Este 0 -- -- 52
2019-04-19 10:00:00 18 6 Sudeste 11 Este 0 -- -- 63
2019-04-19 09:00:00 15.4 4 Sur 12 Oeste 0 -- -- 73
2019-04-19 08:00:00 12.3 7 Oeste 18 Oeste 0 -- -- 81
2019-04-19 07:00:00 12.1 11 Oeste 16 Oeste 0 -- -- 78
2019-04-19 06:00:00 12.3 11 Oeste 16 Oeste 0 -- -- 80
2019-04-19 05:00:00 12.2 6 Noroeste 13 Oeste 0 -- -- 81
2019-04-19 04:00:00 12.8 10 Oeste 18 Oeste 0 -- -- 78
2019-04-19 03:00:00 13 12 Oeste 18 Oeste 0 -- -- 78
2019-04-19 02:00:00 13.1 7 Oeste 13 Noroeste 0 -- -- 79
2019-04-19 01:00:00 12.8 6 Noroeste 13 Oeste 0 -- -- 80
2019-04-19 00:00:00 13.2 10 Oeste 15 Oeste 0 -- -- 78
2019-04-18 23:00:00 13.6 6 Oeste 11 Sudoeste 0 -- -- 77
2019-04-18 22:00:00 14.5 3 Sudoeste 27 Nordeste 0 -- -- 75
2019-04-18 21:00:00 15 12 Nordeste 30 Nordeste 0 -- -- 70
2019-04-18 20:00:00 15.7 15 Este 31 Nordeste 0 -- -- 69
2019-04-18 19:00:00 16.3 17 Nordeste 37 Este 0 -- -- 69
2019-04-18 18:00:00 16.7 18 Nordeste 33 Nordeste 0 -- -- 65
2019-04-18 17:00:00 17.5 17 Nordeste 34 Nordeste 0 -- -- 68
2019-04-18 16:00:00 17.6 20 Nordeste 38 Nordeste 0 -- -- 66
2019-04-18 15:00:00 18.5 21 Nordeste 41 Nordeste 0 -- -- 62
2019-04-18 14:00:00 18 22 Este 40 Nordeste 0 -- -- 58
2019-04-18 13:00:00 18.5 10 Este 25 Este 0 -- -- 59
2019-04-18 12:00:00 17.1 17 Este 28 Este 0 -- -- 63
2019-04-18 11:00:00 17.6 5 Sudeste 16 Este 0 -- -- 66
2019-04-18 10:00:00 15.8 4 Sudeste 9 Sudeste 0 -- -- 76
2019-04-18 09:00:00 14 3 Sur 11 Oeste 0 -- -- 83
2019-04-18 08:00:00 13.2 9 Oeste 14 Oeste 0 -- -- 84
2019-04-18 07:00:00 13.3 5 Oeste 10 Oeste 0 -- -- 87
2019-04-18 06:00:00 14 6 Noroeste 9 Noroeste 0 -- -- 84
2019-04-18 05:00:00 14.1 6 Norte 13 Sudoeste 0 -- -- 85
2019-04-18 04:00:00 14.7 5 Oeste 11 Sudoeste 0 -- -- 89
2019-04-18 03:00:00 14.9 5 Sudoeste 8 Sudoeste 0 -- -- 88
2019-04-18 02:00:00 14.9 4 Noroeste 9 Oeste 0 -- -- 86
2019-04-18 01:00:00 14.9 5 Oeste 8 Oeste 0 -- -- 87
2019-04-18 00:00:00 15 3 Oeste 6 Nordeste 0 -- -- 87
2019-04-17 23:00:00 15.6 4 Norte 10 Oeste 0 -- -- 83
2019-04-17 22:00:00 16 6 Noroeste 9 Noroeste 0 -- -- 81
2019-04-17 21:00:00 16 4 Sudoeste 9 Sur 0 -- -- 86
2019-04-17 20:00:00 16.4 3 Sudeste 10 Este 0 -- -- 81
2019-04-17 19:00:00 16.5 0 Calma 10 Este 0 -- -- 77
2019-04-17 18:00:00 16.6 5 Nordeste 10 Nordeste 0 -- -- 82
2019-04-17 17:00:00 16.9 8 Este 14 Este 0 -- -- 81
2019-04-17 16:00:00 17.6 5 Este 13 Sudeste 0 -- -- 75
2019-04-17 15:00:00 17.8 6 Sudeste 18 Este 0 -- -- 71
2019-04-17 14:00:00 18.8 9 Sudeste 17 Este 0 -- -- 66
2019-04-17 13:00:00 20.3 11 Sudeste 22 Este 0 -- -- 59
2019-04-17 12:00:00 21.2 10 Sudeste 23 Sudeste 0 -- -- 56
2019-04-17 11:00:00 19.2 8 Sur 15 Sudeste 0 -- -- 63
2019-04-17 10:00:00 18.6 7 Sudeste 14 Sudeste 0 -- -- 64
2019-04-17 09:00:00 16.6 3 Sur 11 Noroeste 0 -- -- 74
2019-04-17 08:00:00 13.5 9 Noroeste 15 Noroeste 0 -- -- 78
2019-04-17 07:00:00 13.6 12 Noroeste 16 Noroeste 0 -- -- 78
2019-04-17 06:00:00 14 8 Noroeste 13 Noroeste 0 -- -- 78
2019-04-17 05:00:00 14.5 3 Noroeste 6 Oeste 0 -- -- 80
2019-04-17 04:00:00 14.8 4 Sudoeste 12 Oeste 0 -- -- 77
2019-04-17 03:00:00 14.5 7 Oeste 12 Oeste 0 -- -- 78
2019-04-17 02:00:00 14.6 2 Este 14 Oeste 0 -- -- 86
2019-04-17 01:00:00 14.7 0 Calma 6 Noroeste 0 -- -- 87
2019-04-17 00:00:00 15.2 3 Nordeste 12 Norte 0 -- -- 88
2019-04-16 23:00:00 14.8 8 Norte 13 Nordeste 0 -- -- 92
2019-04-16 22:00:00 15 8 Nordeste 15 Nordeste 0 -- -- 93
2019-04-16 21:00:00 15.7 8 Nordeste 13 Nordeste 0 -- -- 91
2019-04-16 20:00:00 16.6 6 Nordeste 9 Nordeste 0 -- -- 86
2019-04-16 19:00:00 16.8 4 Sudeste 10 Sur 0 -- -- 84
2019-04-16 18:00:00 16.8 7 Sudeste 11 Sur 0 -- -- 82
2019-04-16 17:00:00 17 8 Sur 13 Sudeste 0 -- -- 80
2019-04-16 16:00:00 17 6 Sudeste 14 Este 0 -- -- 80
2019-04-16 15:00:00 16.9 4 Sudeste 12 Sudeste 0 -- -- 82
2019-04-16 14:00:00 16.7 4 Sudeste 10 Este 0 -- -- 84
2019-04-16 13:00:00 17 5 Este 15 Sudeste 0 -- -- 83
2019-04-16 12:00:00 18.1 9 Sudeste 17 Este 0 -- -- 78
2019-04-16 11:00:00 18.2 8 Sudeste 17 Este 0 -- -- 78
2019-04-16 10:00:00 17.9 8 Este 16 Este 0 -- -- 78
2019-04-16 09:00:00 14.3 3 Oeste 7 Noroeste 0 -- -- 84
2019-04-16 08:00:00 13.1 6 Noroeste 8 Noroeste 0 -- -- 77
2019-04-16 07:00:00 13.6 2 Norte 13 Norte 0 -- -- 84
2019-04-16 06:00:00 13.7 8 Noroeste 13 Norte 0 -- -- 80
2019-04-16 05:00:00 13.4 8 Noroeste 13 Noroeste 0 -- -- 81
2019-04-16 04:00:00 13.9 8 Norte 15 Nordeste 0 -- -- 87
2019-04-16 03:00:00 13.6 5 Nordeste 11 Norte 0 -- -- 86
2019-04-16 02:00:00 14 5 Norte 14 Norte 0 -- -- 83
2019-04-16 01:00:00 14.5 10 Norte 16 Norte 0 -- -- 84
2019-04-16 00:00:00 14.8 5 Norte 11 Nordeste 0 -- -- 89
2019-04-15 23:00:00 15.1 6 Nordeste 11 Nordeste 0 -- -- 90
2019-04-15 22:00:00 15.8 8 Nordeste 14 Este 0 -- -- 88
2019-04-15 21:00:00 16.3 9 Nordeste 17 Este 0 -- -- 89
2019-04-15 20:00:00 16.8 12 Nordeste 19 Este 0 -- -- 87
2019-04-15 19:00:00 17.3 13 Nordeste 26 Este 0 -- -- 82
2019-04-15 18:00:00 18.6 13 Este 27 Nordeste 0 -- -- 76
2019-04-15 17:00:00 20.2 19 Nordeste 29 Este 0 -- -- 69
2019-04-15 16:00:00 20.9 17 Este 33 Nordeste 0 -- -- 66
2019-04-15 15:00:00 21.3 19 Nordeste 38 Este 0 -- -- 64
2019-04-15 14:00:00 21.8 22 Este 35 Este 0 -- -- 58
2019-04-15 13:00:00 20.2 21 Este 38 Este 0 -- -- 64
2019-04-15 12:00:00 19.8 22 Nordeste 35 Nordeste 0 -- -- 65
2019-04-15 11:00:00 19 22 Nordeste 31 Nordeste 0 -- -- 64
2019-04-15 10:00:00 18.8 12 Nordeste 23 Este 0 -- -- 65
2019-04-15 09:00:00 16.2 9 Noroeste 13 Noroeste 0 -- -- 74
2019-04-15 08:00:00 13.4 5 Noroeste 13 Noroeste 0 -- -- 82
2019-04-15 07:00:00 13.3 5 Noroeste 14 Noroeste 0 -- -- 80
2019-04-15 06:00:00 13.3 10 Noroeste 13 Noroeste 0 -- -- 80
2019-04-15 05:00:00 13.2 8 Noroeste 13 Noroeste 0 -- -- 82
2019-04-15 04:00:00 13.3 9 Noroeste 13 Noroeste 0 -- -- 85
2019-04-15 03:00:00 13.9 7 Oeste 12 Oeste 0 -- -- 84
2019-04-15 02:00:00 14.2 8 Noroeste 20 Oeste 0 -- -- 81
2019-04-15 01:00:00 14.2 7 Oeste 13 Oeste 0 -- -- 83
2019-04-15 00:00:00 14.4 3 Sudoeste 12 Noroeste 0 -- -- 84
2019-04-14 23:00:00 15 4 Sudoeste 9 Sudoeste 0 -- -- 88
2019-04-14 22:00:00 15.3 4 Sudoeste 8 Sur 0 -- -- 87
2019-04-14 21:00:00 16.2 5 Sur 12 Este 0 -- -- 85
2019-04-14 20:00:00 17.4 6 Sudeste 13 Sudeste 0 -- -- 80
2019-04-14 19:00:00 19 8 Sudeste 15 Sudeste 0 -- -- 72
2019-04-14 18:00:00 20.9 8 Este 19 Este 0 -- -- 66
2019-04-14 17:00:00 22 10 Este 18 Sudeste 0 -- -- 61
2019-04-14 16:00:00 22.4 9 Este 21 Sudeste 0 -- -- 59
2019-04-14 15:00:00 22.9 11 Este 20 Sudeste 0 -- -- 58
2019-04-14 14:00:00 22.5 10 Sudeste 20 Sudeste 0 -- -- 58
2019-04-14 13:00:00 21.9 8 Este 19 Este 0 -- -- 59
2019-04-14 12:00:00 21 9 Este 15 Sudeste 0 -- -- 60
2019-04-14 11:00:00 19.8 8 Sudeste 16 Sudeste 0 -- -- 63
2019-04-14 10:00:00 18.5 5 Este 9 Sudeste 0 -- -- 63
2019-04-14 09:00:00 15.4 3 Norte 11 Norte 0 -- -- 73
2019-04-14 08:00:00 12.3 8 Norte 15 Norte 0 -- -- 79
2019-04-14 07:00:00 12 7 Noroeste 17 Norte 0 -- -- 80
2019-04-14 06:00:00 12.3 12 Nordeste 21 Norte 0 -- -- 81
2019-04-14 05:00:00 12.9 13 Nordeste 25 Nordeste 0 -- -- 85
2019-04-14 04:00:00 12.8 12 Nordeste 20 Norte 0 -- -- 82
2019-04-14 03:00:00 12.8 8 Norte 21 Nordeste 0 -- -- 81
2019-04-14 02:00:00 13 12 Nordeste 19 Nordeste 0 -- -- 86
2019-04-14 01:00:00 13.2 11 Norte 17 Nordeste 0 -- -- 89
2019-04-14 00:00:00 13.4 9 Norte 18 Nordeste 0 -- -- 90
2019-04-13 23:00:00 14.1 8 Nordeste 27 Nordeste 0 -- -- 89
2019-04-13 22:00:00 14.2 7 Nordeste 18 Nordeste 0 -- -- 90
2019-04-13 21:00:00 14.8 14 Nordeste 22 Nordeste 0 -- -- 88
2019-04-13 20:00:00 15.8 15 Nordeste 25 Nordeste 0 -- -- 83
2019-04-13 19:00:00 17.7 14 Nordeste 31 Nordeste 0 -- -- 74
2019-04-13 18:00:00 19.2 18 Nordeste 33 Nordeste 0 -- -- 67
2019-04-13 17:00:00 19.7 22 Nordeste 36 Nordeste 0 -- -- 65
2019-04-13 16:00:00 19.9 24 Nordeste 39 Nordeste 0 -- -- 65
2019-04-13 15:00:00 20.4 25 Nordeste 44 Este 0 -- -- 59
2019-04-13 14:00:00 19.7 27 Nordeste 43 Nordeste 0 -- -- 60
2019-04-13 13:00:00 19.3 27 Nordeste 39 Nordeste 0 -- -- 63
2019-04-13 12:00:00 19.1 24 Nordeste 42 Este 0 -- -- 62
2019-04-13 11:00:00 18.2 23 Nordeste 36 Nordeste 0 -- -- 62
2019-04-13 10:00:00 16.9 22 Nordeste 39 Nordeste 0 -- -- 67
2019-04-13 09:00:00 15.2 27 Nordeste 39 Nordeste 0 -- -- 75
2019-04-13 08:00:00 13.3 17 Nordeste 33 Nordeste 0 -- -- 82
2019-04-13 07:00:00 13.7 20 Nordeste 40 Nordeste 0 -- -- 75
2019-04-13 06:00:00 13.6 17 Nordeste 31 Nordeste 0 -- -- 75
2019-04-13 05:00:00 13.6 16 Nordeste 37 Nordeste 0 -- -- 75
2019-04-13 04:00:00 13.3 13 Nordeste 33 Nordeste 0 -- -- 76
2019-04-13 03:00:00 13.5 18 Nordeste 32 Nordeste 0 -- -- 74
2019-04-13 02:00:00 13.6 21 Nordeste 36 Nordeste 0 -- -- 76
2019-04-13 01:00:00 13 10 Nordeste 24 Nordeste 0 -- -- 77
2019-04-13 00:00:00 13 6 Nordeste 22 Norte 0 -- -- 74
2019-04-12 23:00:00 13.4 6 Norte 20 Nordeste 0 -- -- 75
2019-04-12 22:00:00 13.9 11 Nordeste 26 Nordeste 0 -- -- 74
2019-04-12 21:00:00 14.4 11 Nordeste 21 Nordeste 0 -- -- 70
2019-04-12 20:00:00 15.4 13 Nordeste 27 Nordeste 0 -- -- 67
2019-04-12 19:00:00 17.2 16 Nordeste 31 Nordeste 0 -- -- 64
2019-04-12 18:00:00 17.9 17 Nordeste 37 Este 0 -- -- 63
2019-04-12 17:00:00 18.7 23 Nordeste 39 Nordeste 0 -- -- 60
2019-04-12 16:00:00 19.7 22 Nordeste 41 Nordeste 0 -- -- 58
2019-04-12 15:00:00 18.6 28 Nordeste 44 Nordeste 0 -- -- 59
2019-04-12 14:00:00 19 26 Nordeste 42 Este 0 -- -- 59
2019-04-12 13:00:00 18.9 25 Nordeste 48 Este 0 -- -- 59
2019-04-12 12:00:00 18.2 28 Nordeste 44 Este 0 -- -- 57
2019-04-12 11:00:00 17.4 26 Nordeste 46 Nordeste 0 -- -- 58
2019-04-12 10:00:00 17.2 13 Nordeste 35 Nordeste 0 -- -- 60
2019-04-12 09:00:00 14.5 3 Sur 15 Oeste 0 -- -- 69
2019-04-12 08:00:00 12 11 Noroeste 18 Oeste 0 -- -- 75
2019-04-12 07:00:00 11.6 9 Oeste 18 Oeste 0 -- -- 76
2019-04-12 06:00:00 11.7 14 Oeste 19 Oeste 0 -- -- 76
2019-04-12 05:00:00 12 13 Oeste 18 Oeste 0 -- -- 77
2019-04-12 04:00:00 12 6 Noroeste 12 Noroeste 0 -- -- 79
2019-04-12 03:00:00 12.3 5 Noroeste 13 Noroeste 0 -- -- 79
2019-04-12 02:00:00 12.8 11 Oeste 14 Oeste 0 -- -- 78
2019-04-12 01:00:00 12.8 5 Noroeste 10 Noroeste 0 -- -- 78
2019-04-12 00:00:00 13.1 0 Calma 15 Noroeste 0 -- -- 76
2019-04-11 23:00:00 13.5 8 Noroeste 14 Noroeste 0 -- -- 73
2019-04-11 22:00:00 13.9 9 Oeste 20 Oeste 0 -- -- 71
2019-04-11 21:00:00 14.1 4 Oeste 24 Nordeste 0 -- -- 72
2019-04-11 20:00:00 15.2 16 Nordeste 39 Nordeste 0 -- -- 66
2019-04-11 19:00:00 17 26 Nordeste 44 Nordeste 0 -- -- 57
2019-04-11 18:00:00 18.1 24 Nordeste 45 Este 0 -- -- 60
2019-04-11 17:00:00 18.9 26 Este 48 Este 0 -- -- 59
2019-04-11 16:00:00 19.1 25 Nordeste 51 Nordeste 0 -- -- 55
2019-04-11 15:00:00 17.7 23 Nordeste 46 Nordeste 0 -- -- 62
2019-04-11 14:00:00 18.4 32 Nordeste 49 Este 0 -- -- 62
2019-04-11 13:00:00 19.1 23 Este 46 Este 0 -- -- 56
2019-04-11 12:00:00 18.3 30 Nordeste 48 Nordeste 0 -- -- 52
2019-04-11 11:00:00 17.3 30 Nordeste 46 Nordeste 0 -- -- 58
2019-04-11 10:00:00 16.4 23 Nordeste 40 Nordeste 0 -- -- 61
2019-04-11 09:00:00 14.6 16 Nordeste 28 Nordeste 0 -- -- 66
2019-04-11 08:00:00 11.9 10 Norte 23 Nordeste 0 -- -- 73
2019-04-11 07:00:00 11.9 10 Nordeste 30 Nordeste 0 -- -- 78
2019-04-11 06:00:00 11.6 9 Norte 20 Norte 0 -- -- 71
2019-04-11 05:00:00 12.1 14 Nordeste 23 Nordeste 0 -- -- 72
2019-04-11 04:00:00 11.5 10 Norte 25 Nordeste 0 -- -- 76
2019-04-11 03:00:00 11.8 10 Norte 18 Nordeste 0 -- -- 74
2019-04-11 02:00:00 11.5 7 Noroeste 14 Noroeste 0 -- -- 77
2019-04-11 01:00:00 11.8 4 Noroeste 15 Norte 0 -- -- 78
2019-04-11 00:00:00 12.3 5 Noroeste 14 Noroeste 0 -- -- 77
2019-04-10 23:00:00 12.5 3 Noroeste 9 Nordeste 0 -- -- 78
2019-04-10 22:00:00 12.9 2 Noroeste 9 Norte 0 -- -- 76
2019-04-10 21:00:00 14.1 10 Nordeste 33 Nordeste 0 -- -- 72
2019-04-10 20:00:00 15.1 15 Nordeste 45 Nordeste 0 -- -- 71
2019-04-10 19:00:00 17 24 Nordeste 45 Nordeste 0 -- -- 63
2019-04-10 18:00:00 18.2 27 Nordeste 47 Nordeste 0 -- -- 53
2019-04-10 17:00:00 17.8 25 Nordeste 40 Nordeste 0 -- -- 56
2019-04-10 16:00:00 18.1 22 Nordeste 42 Nordeste 0 -- -- 56
2019-04-10 15:00:00 18.9 28 Este 42 Este 0 -- -- 51
2019-04-10 14:00:00 19 27 Nordeste 43 Este 0 -- -- 55
2019-04-10 13:00:00 18.6 25 Este 42 Este 0 -- -- 53
2019-04-10 12:00:00 17.9 24 Nordeste 40 Nordeste 0 -- -- 57
2019-04-10 11:00:00 15.8 23 Nordeste 45 Nordeste 0 -- -- 65
2019-04-10 10:00:00 14.8 20 Nordeste 31 Nordeste 0 -- -- 74
2019-04-10 09:00:00 14.3 17 Nordeste 28 Nordeste 0 -- -- 76
2019-04-10 08:00:00 11.8 8 Norte 26 Oeste 0 -- -- 74
2019-04-10 07:00:00 11.3 8 Noroeste 16 Norte 0 -- -- 80
2019-04-10 06:00:00 11.3 10 Noroeste 23 Norte 0 -- -- 78
2019-04-10 05:00:00 11.5 11 Norte 23 Norte 0 -- -- 78
2019-04-10 04:00:00 11.6 12 Norte 26 Nordeste 0 -- -- 80
2019-04-10 03:00:00 11.6 7 Norte 22 Nordeste 0 -- -- 83
2019-04-10 02:00:00 11.8 10 Norte 20 Nordeste 0 -- -- 81
2019-04-10 01:00:00 11.9 9 Nordeste 23 Nordeste 0 -- -- 83
2019-04-10 00:00:00 11.9 7 Norte 17 Este 0 -- -- 85
2019-04-09 23:00:00 12.3 5 Noroeste 12 Noroeste 0 -- -- 87
2019-04-09 22:00:00 13.4 3 Sudoeste 15 Nordeste 0 -- -- 85
2019-04-09 21:00:00 14.1 13 Nordeste 28 Nordeste 0 -- -- 86
2019-04-09 20:00:00 14.5 19 Nordeste 31 Nordeste 0 -- -- 85
2019-04-09 19:00:00 14.9 19 Nordeste 33 Nordeste 0 -- -- 86
2019-04-09 18:00:00 15 22 Nordeste 35 Nordeste 0 -- -- 86
2019-04-09 17:00:00 14.8 19 Nordeste 39 Nordeste 0.2 -- -- 90
2019-04-09 16:00:00 15.3 21 Nordeste 32 Nordeste 0 -- -- 87
2019-04-09 15:00:00 15 21 Nordeste 33 Nordeste 0.4 -- -- 87
2019-04-09 14:00:00 16.2 18 Nordeste 34 Nordeste 0 -- -- 83
2019-04-09 13:00:00 15.5 18 Nordeste 35 Nordeste 0.4 -- -- 90
2019-04-09 12:00:00 17.6 19 Este 33 Este 0 -- -- 78
2019-04-09 11:00:00 19.1 20 Este 32 Este 0 -- -- 59
2019-04-09 10:00:00 17.6 12 Este 18 Nordeste 0 -- -- 66
2019-04-09 09:00:00 13.1 6 Norte 13 Norte 0 -- -- 77
2019-04-09 08:00:00 12.4 9 Norte 17 Norte 0 -- -- 77
2019-04-09 07:00:00 12.1 9 Norte 14 Norte 0 -- -- 81
2019-04-09 06:00:00 12 9 Norte 14 Noroeste 0 -- -- 78
2019-04-09 05:00:00 11.7 8 Noroeste 13 Noroeste 0 -- -- 73
2019-04-09 04:00:00 11.9 9 Noroeste 14 Noroeste 0 -- -- 69
2019-04-09 03:00:00 12.2 7 Noroeste 14 Noroeste 0 -- -- 67
2019-04-09 02:00:00 12.1 8 Noroeste 13 Noroeste 0 -- -- 69
2019-04-09 01:00:00 12.3 12 Noroeste 16 Noroeste 0 -- -- 70
2019-04-09 00:00:00 12.6 10 Oeste 14 Noroeste 0 -- -- 77
2019-04-08 23:00:00 12.8 11 Noroeste 20 Noroeste 0 -- -- 75
2019-04-08 22:00:00 13.7 6 Noroeste 11 Noroeste 0 -- -- 77
2019-04-08 21:00:00 13.8 8 Noroeste 12 Noroeste 0 -- -- 81
2019-04-08 20:00:00 14.9 5 Este 21 Este 0 -- -- 76
2019-04-08 19:00:00 16 12 Nordeste 20 Este 0 -- -- 72
2019-04-08 18:00:00 16.2 14 Nordeste 22 Nordeste 0 -- -- 72
2019-04-08 17:00:00 16.1 12 Este 21 Este 0 -- -- 74
2019-04-08 16:00:00 16.5 7 Este 15 Este 0 -- -- 74
2019-04-08 15:00:00 16.6 8 Nordeste 16 Este 0 -- -- 68
2019-04-08 14:00:00 16.8 5 Este 10 Este 0 -- -- 66
2019-04-08 13:00:00 16.8 5 Este 14 Este 0 -- -- 67
2019-04-08 12:00:00 17.5 9 Este 20 Sudeste 0 -- -- 67
2019-04-08 11:00:00 19.4 8 Este 26 Este 0 -- -- 57
2019-04-08 10:00:00 17 7 Sudoeste 12 Noroeste 0 -- -- 60
2019-04-08 09:00:00 15 9 Noroeste 18 Noroeste 0 -- -- 64
2019-04-08 08:00:00 13.1 10 Noroeste 17 Oeste 0 -- -- 71
2019-04-08 07:00:00 13.4 8 Noroeste 15 Oeste 0 -- -- 68
2019-04-08 06:00:00 13.5 8 Noroeste 14 Oeste 0 -- -- 72
2019-04-08 05:00:00 13 8 Noroeste 14 Noroeste 0 -- -- 84
2019-04-08 04:00:00 12.6 8 Noroeste 13 Noroeste 0 -- -- 79
2019-04-08 03:00:00 12.6 10 Noroeste 17 Noroeste 0 -- -- 78
2019-04-08 02:00:00 12.9 10 Noroeste 13 Noroeste 0 -- -- 76
2019-04-08 01:00:00 13.4 9 Noroeste 19 Oeste 0 -- -- 74
2019-04-08 00:00:00 13.6 6 Noroeste 10 Noroeste 0 -- -- 80
2019-04-07 23:00:00 13.7 5 Noroeste 8 Noroeste 0 -- -- 85
2019-04-07 22:00:00 14.3 2 Noroeste 7 Sur 0 -- -- 82
2019-04-07 21:00:00 15.2 5 Sur 15 Sur 0 -- -- 78
2019-04-07 20:00:00 15.7 11 Sur 17 Sur 0 -- -- 74
2019-04-07 19:00:00 16.4 11 Sur 18 Sur 0 -- -- 67
2019-04-07 18:00:00 17.5 10 Sur 24 Sur 0 -- -- 64
2019-04-07 17:00:00 19.4 12 Sur 19 Sur 0 -- -- 55
2019-04-07 16:00:00 17.8 7 Sudeste 26 Sur 0 -- -- 60
2019-04-07 15:00:00 18.9 9 Sudeste 23 Sudoeste 0 -- -- 60
2019-04-07 14:00:00 18.2 10 Sur 18 Sur 0 -- -- 59
2019-04-07 13:00:00 17.7 11 Sur 18 Sudeste 0 -- -- 60
2019-04-07 12:00:00 18.9 9 Sudeste 21 Sudeste 0 -- -- 54
2019-04-07 11:00:00 18.5 9 Sudeste 16 Sur 0 -- -- 54
2019-04-07 10:00:00 16.2 11 Sur 17 Sur 0 -- -- 66
2019-04-07 09:00:00 14.2 10 Sudoeste 14 Sudoeste 0 -- -- 68
2019-04-07 08:00:00 11.4 8 Noroeste 14 Noroeste 0 -- -- 67
2019-04-07 07:00:00 11.6 10 Noroeste 20 Noroeste 0 -- -- 74
2019-04-07 06:00:00 11.2 10 Noroeste 14 Noroeste 0 -- -- 80
2019-04-07 05:00:00 11.5 9 Noroeste 14 Noroeste 0 -- -- 81
2019-04-07 04:00:00 11.9 6 Noroeste 12 Noroeste 0 -- -- 81
2019-04-07 03:00:00 12 5 Noroeste 13 Noroeste 0 -- -- 80
2019-04-07 02:00:00 12.1 8 Noroeste 14 Noroeste 0 -- -- 79
2019-04-07 01:00:00 12.7 4 Noroeste 11 Noroeste 0 -- -- 76
2019-04-07 00:00:00 13.2 6 Oeste 12 Oeste 0 -- -- 76
2019-04-06 23:00:00 13.8 8 Oeste 12 Oeste 0 -- -- 77
2019-04-06 22:00:00 14.7 5 Sudoeste 13 Sudoeste 0 -- -- 73
2019-04-06 21:00:00 15.2 12 Sudoeste 27 Sudoeste 0 -- -- 70
2019-04-06 20:00:00 15.8 14 Sudoeste 26 Sudoeste 0 -- -- 68
2019-04-06 19:00:00 16.7 16 Sudoeste 27 Sur 0 -- -- 64
2019-04-06 18:00:00 17 17 Sur 31 Sudoeste 0 -- -- 63
2019-04-06 17:00:00 18.5 18 Sudoeste 32 Sudoeste 0 -- -- 57
2019-04-06 16:00:00 16.5 16 Sur 30 Sudoeste 0 -- -- 64
2019-04-06 15:00:00 16.5 18 Sudoeste 30 Sur 0 -- -- 65
2019-04-06 14:00:00 16.9 14 Sudoeste 27 Sudoeste 0 -- -- 64
2019-04-06 13:00:00 18.1 12 Sudeste 19 Sur 0 -- -- 59
2019-04-06 12:00:00 17.1 7 Sudeste 18 Este 0 -- -- 64
2019-04-06 11:00:00 17.7 10 Sudeste 19 Sudoeste 0 -- -- 62
2019-04-06 10:00:00 16.8 7 Sudoeste 13 Sudoeste 0 -- -- 64
2019-04-06 09:00:00 14 9 Oeste 18 Oeste 0 -- -- 71
2019-04-06 08:00:00 13 7 Oeste 16 Oeste 0 -- -- 71
2019-04-06 07:00:00 13 13 Oeste 19 Oeste 0 -- -- 70
2019-04-06 06:00:00 12.4 11 Oeste 16 Oeste 0 -- -- 70
2019-04-06 05:00:00 12.3 12 Oeste 18 Oeste 0 -- -- 72
2019-04-06 04:00:00 13.1 7 Noroeste 18 Oeste 0 -- -- 76
2019-04-06 03:00:00 13.4 10 Oeste 17 Oeste 0 -- -- 74
2019-04-06 02:00:00 13.8 4 Noroeste 14 Noroeste 0 -- -- 74
2019-04-06 01:00:00 14.1 10 Noroeste 18 Oeste 0 -- -- 69
2019-04-06 00:00:00 13.6 13 Oeste 18 Oeste 0 -- -- 76
2019-04-05 23:00:00 13.8 11 Oeste 15 Oeste 0 -- -- 79
2019-04-05 22:00:00 14.5 5 Oeste 9 Sudoeste 0 -- -- 79
2019-04-05 21:00:00 15.1 7 Sur 10 Sur 0 -- -- 76
2019-04-05 20:00:00 15.6 5 Sudeste 12 Sudeste 0 -- -- 75
2019-04-05 19:00:00 16.6 7 Sudeste 17 Sudeste 0 -- -- 70
2019-04-05 18:00:00 17.7 11 Sur 24 Sur 0 -- -- 65
2019-04-05 17:00:00 18.8 17 Sur 33 Sur 0 -- -- 61
2019-04-05 16:00:00 17.5 21 Sudoeste 33 Sur 0 -- -- 66
2019-04-05 15:00:00 17 20 Sur 28 Sur 0 -- -- 67
2019-04-05 14:00:00 17 13 Sur 25 Sudoeste 0 -- -- 64
2019-04-05 13:00:00 17 14 Sur 23 Sur 0 -- -- 67
2019-04-05 12:00:00 17.3 13 Sur 23 Sur 0 -- -- 61
2019-04-05 11:00:00 17.6 9 Sudoeste 15 Sudoeste 0 -- -- 63
2019-04-05 10:00:00 15.8 9 Sudoeste 15 Sudeste 0 -- -- 69
2019-04-05 09:00:00 15 4 Sudoeste 19 Oeste 0 -- -- 70
2019-04-05 08:00:00 12.5 14 Oeste 21 Oeste 0 -- -- 73
2019-04-05 07:00:00 12.4 13 Oeste 17 Oeste 0 -- -- 73
2019-04-05 06:00:00 13 12 Oeste 16 Oeste 0 -- -- 74
2019-04-05 05:00:00 12.7 9 Noroeste 13 Noroeste 0 -- -- 74
2019-04-05 04:00:00 13.1 8 Oeste 12 Oeste 0 -- -- 73
2019-04-05 03:00:00 13.3 10 Noroeste 14 Noroeste 0 -- -- 72
2019-04-05 02:00:00 13.4 11 Noroeste 17 Oeste 0 -- -- 77
2019-04-05 01:00:00 13.7 14 Oeste 18 Oeste 0 -- -- 82
2019-04-05 00:00:00 13.7 13 Oeste 23 Oeste 0 -- -- 79
2019-04-04 23:00:00 14.1 12 Oeste 17 Oeste 0 -- -- 80
2019-04-04 22:00:00 14.7 9 Oeste 22 Sudoeste 0 -- -- 78
2019-04-04 21:00:00 15.4 17 Sudoeste 25 Sudoeste 0 -- -- 73
2019-04-04 20:00:00 15.9 19 Sudoeste 30 Sudoeste 0 -- -- 70
2019-04-04 19:00:00 16.7 19 Sudoeste 31 Sudoeste 0 -- -- 68
2019-04-04 18:00:00 17.7 18 Sudoeste 30 Sudoeste 0 -- -- 64
2019-04-04 17:00:00 18.7 15 Sudoeste 37 Sudoeste 0 -- -- 64
2019-04-04 16:00:00 18.1 15 Sudoeste 29 Sudoeste 0 -- -- 65
2019-04-04 15:00:00 16.3 17 Sudoeste 26 Sudoeste 0 -- -- 73
2019-04-04 14:00:00 16 9 Sur 21 Sur 0 -- -- 73
2019-04-04 13:00:00 17.4 8 Sudoeste 18 Sudeste 0 -- -- 67
2019-04-04 12:00:00 18.1 8 Sudeste 19 Sudeste 0 -- -- 62
2019-04-04 11:00:00 17 7 Sudeste 16 Este 0 -- -- 64
2019-04-04 10:00:00 15.9 4 Sur 9 Sudeste 0 -- -- 71
2019-04-04 09:00:00 14 0 Calma 8 Noroeste 0 -- -- 73
2019-04-04 08:00:00 12 5 Norte 11 Nordeste 0 -- -- 76
2019-04-04 07:00:00 11.3 6 Noroeste 11 Noroeste 0 -- -- 70
2019-04-04 06:00:00 11.5 2 Nordeste 9 Norte 0 -- -- 73
2019-04-04 05:00:00 11.5 7 Norte 20 Nordeste 0 -- -- 83
2019-04-04 04:00:00 12.3 7 Noroeste 16 Noroeste 0 -- -- 71
2019-04-04 03:00:00 12.8 11 Noroeste 15 Noroeste 0 -- -- 71
2019-04-04 02:00:00 13.2 10 Noroeste 15 Noroeste 0 -- -- 75
2019-04-04 01:00:00 13.3 8 Noroeste 16 Noroeste 0 -- -- 70
2019-04-04 00:00:00 13.6 10 Noroeste 18 Noroeste 0 -- -- 64
2019-04-03 23:00:00 13.6 11 Noroeste 17 Noroeste 0 -- -- 64
2019-04-03 22:00:00 13.7 10 Noroeste 17 Noroeste 0 -- -- 67
2019-04-03 21:00:00 13.9 6 Noroeste 9 Noroeste 0 -- -- 76
2019-04-03 20:00:00 15.6 5 Sudeste 10 Sur 0 -- -- 72
2019-04-03 19:00:00 16.2 8 Sur 14 Sudeste 0 -- -- 70
2019-04-03 18:00:00 17.2 8 Sudeste 18 Sudeste 0 -- -- 70
2019-04-03 17:00:00 17.5 8 Este 23 Este 0 -- -- 59
2019-04-03 16:00:00 18.4 12 Este 23 Este 0 -- -- 66
2019-04-03 15:00:00 18.3 14 Este 29 Este 0.4 -- -- 65
2019-04-03 14:00:00 16.5 17 Este 28 Este 0 -- -- 78
2019-04-03 13:00:00 17 12 Este 25 Este 0 -- -- 73
2019-04-03 12:00:00 18.9 14 Este 23 Este 0 -- -- 72
2019-04-03 11:00:00 17.8 11 Este 19 Nordeste 0 -- -- 73
2019-04-03 10:00:00 16.5 10 Nordeste 14 Nordeste 0 -- -- 75
2019-04-03 09:00:00 14 5 Norte 13 Noroeste 0 -- -- 75
2019-04-03 08:00:00 11.3 5 Noroeste 15 Noroeste 0 -- -- 80
2019-04-03 07:00:00 11.9 8 Noroeste 15 Oeste 0 -- -- 77
2019-04-03 06:00:00 12.5 14 Oeste 22 Oeste 0 -- -- 81
2019-04-03 05:00:00 12.9 15 Oeste 23 Oeste 0 -- -- 82
2019-04-03 04:00:00 13 8 Noroeste 18 Oeste 0 -- -- 79
2019-04-03 03:00:00 12.9 10 Noroeste 15 Noroeste 0 -- -- 86
2019-04-03 02:00:00 12.6 7 Noroeste 11 Noroeste 0 -- -- 87
2019-04-03 01:00:00 13.1 4 Noroeste 10 Noroeste 0 -- -- 87
2019-04-03 00:00:00 13 9 Noroeste 14 Noroeste 0 -- -- 88
2019-04-02 23:00:00 13.1 8 Noroeste 10 Noroeste 0 -- -- 91
2019-04-02 22:00:00 13.2 4 Norte 6 Norte 0 -- -- 91
2019-04-02 21:00:00 14.1 2 Nordeste 8 Este 0 -- -- 91
2019-04-02 20:00:00 15.2 4 Este 7 Este 0 -- -- 88
2019-04-02 19:00:00 15.5 4 Nordeste 12 Nordeste 0 -- -- 87
2019-04-02 18:00:00 16 9 Este 14 Este 0 -- -- 86
2019-04-02 17:00:00 15.9 5 Sudeste 17 Sudoeste 0 -- -- 86
2019-04-02 16:00:00 15.7 9 Sur 16 Sudoeste 0 -- -- 84
2019-04-02 15:00:00 14.4 6 Noroeste 12 Norte 0 -- -- 94
2019-04-02 14:00:00 14.6 6 Nordeste 10 Nordeste 0.2 -- -- 93
2019-04-02 13:00:00 14.1 4 Norte 7 Noroeste 1.4 -- -- 92
2019-04-02 12:00:00 14.4 3 Oeste 17 Noroeste 0.8 -- -- 86
2019-04-02 11:00:00 13.7 6 Noroeste 11 Noroeste 2 -- -- 88
2019-04-02 10:00:00 14 4 Nordeste 10 Noroeste 0 -- -- 92
2019-04-02 09:00:00 13.3 9 Noroeste 11 Noroeste 0.2 -- -- 93
2019-04-02 08:00:00 13.1 4 Noroeste 10 Nordeste 0 -- -- 95
2019-04-02 07:00:00 13.1 5 Norte 8 Norte 0 -- -- 95
2019-04-02 06:00:00 13 3 Noroeste 6 Norte 0 -- -- 95
2019-04-02 05:00:00 13.2 3 Nordeste 7 Noroeste 0 -- -- 94
2019-04-02 04:00:00 13.3 4 Noroeste 8 Oeste 0 -- -- 93
2019-04-02 03:00:00 13.3 4 Noroeste 9 Noroeste 0 -- -- 94
2019-04-02 02:00:00 13.5 5 Este 8 Nordeste 0 -- -- 92
2019-04-02 01:00:00 13.5 8 Noroeste 13 Noroeste 0 -- -- 92
2019-04-02 00:00:00 13.5 4 Oeste 13 Oeste 0 -- -- 91
2019-04-01 23:00:00 13.2 9 Noroeste 14 Noroeste 0.4 -- -- 91
2019-04-01 22:00:00 13.5 3 Sudoeste 8 Noroeste 1.2 -- -- 94
2019-04-01 21:00:00 13.2 8 Noroeste 14 Oeste 1.4 -- -- 93
2019-04-01 20:00:00 13.7 4 Noroeste 7 Norte 1.8 -- -- 94
2019-04-01 19:00:00 14 3 Norte 6 Nordeste 1.4 -- -- 93
2019-04-01 18:00:00 14.5 4 Nordeste 9 Sudeste 0.6 -- -- 91
2019-04-01 17:00:00 15 2 Este 9 Noroeste 0.2 -- -- 88
2019-04-01 16:00:00 14.8 3 Norte 8 Nordeste 0 -- -- 91
2019-04-01 15:00:00 15.1 3 Este 11 Sudeste 0.6 -- -- 89
2019-04-01 14:00:00 16 6 Sudeste 12 Este 0 -- -- 78
2019-04-01 13:00:00 16 4 Este 14 Este 0 -- -- 77
2019-04-01 12:00:00 15.9 6 Sudeste 12 Sudeste 0 -- -- 79
2019-04-01 11:00:00 16 7 Sur 12 Sudeste 0 -- -- 76
2019-04-01 10:00:00 15.7 5 Sur 10 Sur 0 -- -- 76
2019-04-01 09:00:00 13.8 7 Oeste 14 Oeste 0 -- -- 75
2019-04-01 08:00:00 12.7 12 Oeste 19 Oeste 0 -- -- 79
2019-04-01 07:00:00 12.5 14 Oeste 17 Oeste 0 -- -- 75
2019-04-01 06:00:00 12.8 12 Oeste 17 Oeste 0 -- -- 77
2019-04-01 05:00:00 13.2 13 Oeste 21 Oeste 0 -- -- 78
2019-04-01 04:00:00 12.9 13 Oeste 21 Sudoeste 0 -- -- 73
2019-04-01 03:00:00 12.8 13 Oeste 19 Oeste 0 -- -- 80
2019-04-01 02:00:00 12.6 9 Oeste 13 Oeste 0 -- -- 80
2019-04-01 01:00:00 13.1 6 Noroeste 16 Noroeste 0 -- -- 77
2019-04-01 00:00:00 13.2 10 Noroeste 14 Noroeste 0 -- -- 79
2019-03-31 23:00:00 13.7 4 Noroeste 8 Noroeste 0 -- -- 80
2019-03-31 22:00:00 14.7 3 Este 9 Nordeste 0 -- -- 75
2019-03-31 21:00:00 15.5 5 Este 8 Este 0 -- -- 75
2019-03-31 20:00:00 16.4 4 Este 10 Sudeste 0 -- -- 67
2019-03-31 19:00:00 17.7 6 Sudeste 16 Sudeste 0 -- -- 57
2019-03-31 18:00:00 18.5 8 Este 18 Este 0 -- -- 54
2019-03-31 17:00:00 18.3 6 Este 20 Este 0 -- -- 57
2019-03-31 16:00:00 19.8 9 Este 20 Este 0 -- -- 52
2019-03-31 15:00:00 20.2 8 Este 19 Este 0 -- -- 49
2019-03-31 14:00:00 19.4 7 Este 18 Este 0 -- -- 51
2019-03-31 13:00:00 19.6 10 Sudeste 20 Sudeste 0 -- -- 51
2019-03-31 12:00:00 19.3 9 Sudeste 18 Este 0 -- -- 55
2019-03-31 11:00:00 18.3 6 Este 13 Este 0 -- -- 62
2019-03-31 10:00:00 16.5 5 Sur 10 Sudeste 0 -- -- 68
2019-03-31 09:00:00 13.5 5 Noroeste 14 Noroeste 0 -- -- 70
2019-03-31 08:00:00 10.7 8 Noroeste 15 Noroeste 0 -- -- 71
2019-03-31 07:00:00 10.6 6 Oeste 15 Noroeste 0 -- -- 79
2019-03-31 06:00:00 11.1 9 Noroeste 14 Noroeste 0 -- -- 70
2019-03-31 05:00:00 11.1 11 Noroeste 18 Noroeste 0 -- -- 71
2019-03-31 04:00:00 11.1 9 Noroeste 15 Oeste 0 -- -- 71
2019-03-31 00:00:00 11.3 6 Oeste 13 Noroeste 0 -- -- 84
2019-03-30 23:00:00 11.8 8 Noroeste 14 Noroeste 0 -- -- 81
2019-03-30 22:00:00 12 9 Noroeste 13 Noroeste 0 -- -- 82
2019-03-30 21:00:00 12.2 7 Noroeste 10 Noroeste 0 -- -- 84
2019-03-30 20:00:00 13.1 5 Norte 6 Noroeste 0 -- -- 81
2019-03-30 19:00:00 14.4 3 Sur 5 Sur 0 -- -- 76
2019-03-30 18:00:00 15.1 4 Este 13 Este 0 -- -- 73
2019-03-30 17:00:00 15.9 8 Este 15 Este 0 -- -- 72
2019-03-30 16:00:00 16.4 6 Este 13 Sudeste 0 -- -- 72
2019-03-30 15:00:00 15.2 2 Noroeste 10 Nordeste 0 -- -- 81
2019-03-30 14:00:00 14.7 6 Este 19 Nordeste 0.8 -- -- 87
2019-03-30 13:00:00 16.7 12 Este 28 Nordeste 0 -- -- 68
2019-03-30 12:00:00 17.2 13 Este 22 Este 0 -- -- 68
2019-03-30 11:00:00 16.8 9 Este 20 Sudeste 0 -- -- 70
2019-03-30 10:00:00 17.3 8 Sudeste 14 Sudeste 0 -- -- 68
2019-03-30 09:00:00 16.4 4 Este 9 Noroeste 0 -- -- 67
2019-03-30 08:00:00 13 7 Noroeste 13 Noroeste 0 -- -- 74
2019-03-30 07:00:00 11.6 10 Noroeste 16 Noroeste 0 -- -- 74
2019-03-30 06:00:00 11.8 6 Noroeste 15 Noroeste 0 -- -- 71
2019-03-30 05:00:00 11.8 9 Noroeste 16 Noroeste 0 -- -- 69
2019-03-30 04:00:00 12 11 Oeste 17 Oeste 0 -- -- 67
2019-03-30 03:00:00 12.1 9 Oeste 15 Noroeste 0 -- -- 69
2019-03-30 02:00:00 12.2 12 Noroeste 15 Noroeste 0 -- -- 69
2019-03-30 01:00:00 12.5 13 Noroeste 20 Noroeste 0 -- -- 73
2019-03-30 00:00:00 12.5 11 Noroeste 14 Noroeste 0 -- -- 73
2019-03-29 23:00:00 12.6 8 Noroeste 13 Noroeste 0 -- -- 73
2019-03-29 22:00:00 12.7 9 Noroeste 13 Noroeste 0 -- -- 74
2019-03-29 21:00:00 13.1 7 Noroeste 11 Norte 0 -- -- 72
2019-03-29 20:00:00 13.8 6 Norte 15 Nordeste 0 -- -- 74
2019-03-29 19:00:00 14.5 8 Norte 22 Nordeste 0 -- -- 73
2019-03-29 18:00:00 15.4 12 Nordeste 24 Nordeste 0 -- -- 72
2019-03-29 17:00:00 16.8 15 Nordeste 25 Nordeste 0 -- -- 74
2019-03-29 16:00:00 15.9 13 Nordeste 33 Nordeste 0 -- -- 80
2019-03-29 15:00:00 16.6 21 Nordeste 32 Nordeste 0 -- -- 76
2019-03-29 14:00:00 19.1 14 Sudeste 26 Sudeste 0 -- -- 66
2019-03-29 13:00:00 18.1 16 Sudeste 24 Sudeste 0 -- -- 71
2019-03-29 12:00:00 16.6 10 Sudoeste 22 Sur 0 -- -- 73
2019-03-29 11:00:00 16.7 16 Sur 22 Sur 0 -- -- 76
2019-03-29 10:00:00 18.3 10 Sudeste 15 Sudeste 0 -- -- 68
2019-03-29 09:00:00 16.7 5 Este 10 Este 0 -- -- 72
2019-03-29 08:00:00 13.6 4 Noroeste 14 Noroeste 0 -- -- 71
2019-03-29 07:00:00 11.9 12 Noroeste 16 Noroeste 0 -- -- 75
2019-03-29 06:00:00 12 12 Noroeste 18 Noroeste 0 -- -- 72
2019-03-29 05:00:00 11.9 12 Noroeste 18 Noroeste 0 -- -- 81
2019-03-29 04:00:00 12.2 6 Noroeste 14 Noroeste 0 -- -- 82
2019-03-29 03:00:00 12.4 5 Noroeste 11 Oeste 0 -- -- 85
2019-03-29 02:00:00 12.9 8 Noroeste 11 Noroeste 0 -- -- 84
2019-03-29 01:00:00 13.7 3 Noroeste 10 Norte 0 -- -- 87
2019-03-29 00:00:00 13.9 3 Noroeste 8 Noroeste 0 -- -- 88
2019-03-28 23:00:00 13.9 4 Noroeste 6 Noroeste 0 -- -- 88
2019-03-28 22:00:00 14.3 3 Nordeste 6 Nordeste 0 -- -- 87
2019-03-28 21:00:00 14.6 4 Nordeste 9 Nordeste 0 -- -- 87
2019-03-28 20:00:00 14.7 8 Nordeste 12 Este 0 -- -- 85
2019-03-28 19:00:00 15.2 7 Este 15 Nordeste 0 -- -- 83
2019-03-28 18:00:00 15.8 9 Este 17 Este 0 -- -- 81
2019-03-28 17:00:00 16.3 9 Este 15 Este 0 -- -- 77
2019-03-28 16:00:00 16.2 6 Nordeste 13 Nordeste 0 -- -- 79
2019-03-28 15:00:00 16.7 7 Este 15 Este 0 -- -- 76
2019-03-28 14:00:00 17.6 9 Este 15 Este 0 -- -- 72
2019-03-28 13:00:00 17.5 8 Nordeste 18 Este 0 -- -- 71
2019-03-28 12:00:00 18.2 10 Este 20 Este 0 -- -- 69
2019-03-28 11:00:00 19.5 9 Este 18 Nordeste 0 -- -- 66
2019-03-28 10:00:00 18.1 8 Este 14 Este 0 -- -- 70
2019-03-28 09:00:00 16.2 5 Nordeste 10 Nordeste 0 -- -- 76
2019-03-28 08:00:00 13.2 4 Noroeste 12 Noroeste 0 -- -- 86
2019-03-28 07:00:00 12.1 8 Noroeste 12 Noroeste 0 -- -- 86
2019-03-28 06:00:00 12.5 6 Noroeste 11 Noroeste 0 -- -- 86
2019-03-28 05:00:00 12.3 6 Noroeste 11 Noroeste 0 -- -- 88
2019-03-28 04:00:00 12.7 8 Norte 11 Norte 0.2 -- -- 88
2019-03-28 03:00:00 13.1 4 Noroeste 10 Nordeste 0.8 -- -- 88
2019-03-28 02:00:00 13.5 7 Noroeste 12 Norte 0.4 -- -- 86
2019-03-28 01:00:00 14.2 3 Nordeste 9 Norte 0 -- -- 87
2019-03-28 00:00:00 14.6 5 Nordeste 9 Nordeste 0 -- -- 89
2019-03-27 23:00:00 14.4 3 Sur 6 Sudeste 0 -- -- 88
2019-03-27 22:00:00 14.4 3 Noroeste 8 Noroeste 0 -- -- 87
2019-03-27 21:00:00 14.5 3 Oeste 6 Norte 0 -- -- 86
2019-03-27 20:00:00 15.2 3 Sudeste 6 Sudeste 0 -- -- 83
2019-03-27 19:00:00 15.6 4 Sur 12 Sudeste 0 -- -- 81
2019-03-27 18:00:00 16.4 6 Sur 13 Sur 0 -- -- 79
2019-03-27 17:00:00 16.5 3 Este 13 Sudeste 0 -- -- 81
2019-03-27 16:00:00 16.2 9 Sudoeste 17 Sudoeste 0.6 -- -- 73
2019-03-27 15:00:00 16.8 7 Nordeste 18 Sudeste 0 -- -- 81
2019-03-27 14:00:00 16.8 6 Sudeste 20 Este 0 -- -- 75
2019-03-27 13:00:00 17.5 10 Este 22 Sudeste 0 -- -- 74
2019-03-27 12:00:00 18.1 12 Sudeste 21 Sur 0 -- -- 70
2019-03-27 11:00:00 18.2 10 Sudeste 18 Sur 0 -- -- 71
2019-03-27 10:00:00 19.4 7 Este 16 Este 0 -- -- 62
2019-03-27 09:00:00 17.5 6 Este 12 Este 0 -- -- 69
2019-03-27 08:00:00 14.4 6 Noroeste 10 Noroeste 0 -- -- 72
2019-03-27 07:00:00 12.9 5 Noroeste 10 Noroeste 0 -- -- 73
2019-03-27 06:00:00 13.1 4 Norte 18 Oeste 0 -- -- 72
2019-03-27 05:00:00 13.1 10 Noroeste 17 Noroeste 0 -- -- 70
2019-03-27 04:00:00 13 6 Norte 22 Sudoeste 0 -- -- 71
2019-03-27 03:00:00 13.4 18 Oeste 23 Sudoeste 0 -- -- 75
2019-03-27 02:00:00 13 15 Oeste 23 Oeste 0 -- -- 76
2019-03-27 01:00:00 12.6 9 Oeste 16 Oeste 0 -- -- 79
2019-03-27 00:00:00 12.9 4 Oeste 16 Noroeste 0 -- -- 83
2019-03-26 23:00:00 12.8 10 Noroeste 16 Noroeste 0 -- -- 86
2019-03-26 22:00:00 13 6 Noroeste 12 Noroeste 0 -- -- 85
2019-03-26 21:00:00 13.3 7 Noroeste 11 Noroeste 0 -- -- 83
2019-03-26 20:00:00 14 4 Noroeste 8 Noroeste 0 -- -- 81
2019-03-26 19:00:00 15.6 6 Este 10 Este 0 -- -- 74
2019-03-26 18:00:00 17.1 4 Sur 16 Sudeste 0 -- -- 64
2019-03-26 17:00:00 17.4 7 Sudeste 17 Sudoeste 0 -- -- 64
2019-03-26 16:00:00 17.9 8 Sur 19 Sur 0 -- -- 61
2019-03-26 15:00:00 17.5 10 Sur 20 Sudeste 0 -- -- 66
2019-03-26 14:00:00 17.9 7 Sudeste 22 Sudeste 0 -- -- 64
2019-03-26 13:00:00 19 10 Sur 20 Sur 0 -- -- 63
2019-03-26 12:00:00 17.4 10 Sudoeste 22 Sur 0 -- -- 66
2019-03-26 11:00:00 18.4 13 Sudeste 23 Sur 0 -- -- 68
2019-03-26 10:00:00 16.7 8 Sudeste 13 Sudeste 0 -- -- 70
2019-03-26 09:00:00 16.2 5 Sudeste 10 Sudeste 0 -- -- 68
2019-03-26 08:00:00 13.5 0 Calma 13 Noroeste 0 -- -- 74
2019-03-26 07:00:00 11 6 Noroeste 16 Noroeste 0 -- -- 81
2019-03-26 06:00:00 11 8 Noroeste 12 Noroeste 0 -- -- 82
2019-03-26 05:00:00 11.3 7 Noroeste 13 Noroeste 0 -- -- 80
2019-03-26 04:00:00 11.2 7 Noroeste 16 Noroeste 0 -- -- 81
2019-03-26 03:00:00 11.3 8 Noroeste 12 Oeste 0 -- -- 81
2019-03-26 02:00:00 11.5 8 Noroeste 15 Noroeste 0 -- -- 81
2019-03-26 01:00:00 11.3 11 Noroeste 14 Noroeste 0 -- -- 86
2019-03-26 00:00:00 11.4 7 Noroeste 9 Noroeste 0 -- -- 89
2019-03-25 23:00:00 11.4 5 Noroeste 10 Noroeste 0 -- -- 88
2019-03-25 22:00:00 11.6 9 Noroeste 13 Noroeste 0 -- -- 93
2019-03-25 21:00:00 12.2 3 Nordeste 11 Noroeste 0 -- -- 91
2019-03-25 20:00:00 13 5 Norte 8 Norte 0 -- -- 93
2019-03-25 19:00:00 13.6 7 Sudeste 12 Este 0 -- -- 91
2019-03-25 18:00:00 13.7 3 Norte 11 Este 0 -- -- 87
2019-03-25 17:00:00 14.7 4 Este 13 Este 0 -- -- 86
2019-03-25 16:00:00 14.7 6 Este 15 Sudeste 0 -- -- 84
2019-03-25 15:00:00 15.1 7 Sudoeste 13 Sudoeste 0 -- -- 76
2019-03-25 14:00:00 14.9 4 Sudeste 12 Sudeste 0.2 -- -- 81
2019-03-25 13:00:00 13.6 9 Sudoeste 24 Sudoeste 2.2 -- -- 86
2019-03-25 12:00:00 14.1 3 Noroeste 8 Oeste 0.8 -- -- 87
2019-03-25 11:00:00 13.5 2 Norte 9 Oeste 0.4 -- -- 89
2019-03-25 10:00:00 12.7 3 Noroeste 16 Noroeste 0.8 -- -- 91
2019-03-25 09:00:00 12.1 9 Noroeste 14 Noroeste 8 -- -- 87
2019-03-25 08:00:00 13.3 4 Sudoeste 9 Oeste 0 -- -- 85
2019-03-25 07:00:00 12.8 3 Noroeste 11 Noroeste 0 -- -- 86
2019-03-25 06:00:00 13 6 Noroeste 9 Noroeste 0.2 -- -- 86
2019-03-25 05:00:00 13.5 3 Oeste 8 Sudoeste 0 -- -- 88
2019-03-25 04:00:00 13.6 8 Sudoeste 10 Sudoeste 0 -- -- 85
2019-03-25 03:00:00 13.2 4 Oeste 8 Oeste 0 -- -- 80
2019-03-25 02:00:00 13 7 Oeste 9 Oeste 0 -- -- 80
2019-03-25 01:00:00 12.7 5 Oeste 12 Oeste 0 -- -- 80
2019-03-25 00:00:00 12.8 5 Noroeste 10 Oeste 0 -- -- 81